« 定点 富山空港他 2024/3/25 tue | トップページ | 定点 富山空港 2024/3/31 sun »

2024/03/29

定点 富山空港他 2024/3/29 fri

今日は、天気予報どおり朝方は雨が残りましたが、お昼頃から青空が広がるとともに、黄砂の来襲で、鼻ムズムズ。

RJNT 290100Z 24007KT 210V290 9999 -SHRA FEW005 SCT015 BKN020 14/13 Q1006

20240329_rjnt_00ja173b

JA173B BK117C-2 THK 富山県ドクターヘリ

予想した通り、お昼前にご出勤となりました。

20240329_rjnt_01ja173b

シンクロするエンジンスタート

20240329_rjnt_02ja6502

JA6502↑ AS350B3 AKF

###

 

RJNT 290200Z 27005KT 230V310 9999 FEW010 SCT025 BKN035 16/14 Q1006

20240329_rjnt_03ja6502

JA6502↓ まだスキー履いてます。

20240329_rjnt_04ja87an

春の南西の風で、クラブ見物

20240329_rjnt_05ja87an

目の前では、相変わらず先輩諸氏の空中戦が繰り広げられています。

20240329_rjnt_06ja87an

ANA315 RJTT-RJNT JA87AN B737-8AL

20240329_rjnt_07ja87an

なんか機材が整わなかったで、約1時間のディレイ

RJNT 290300Z 27010KT 250V310 9999 FEW010 SCT030 BKN040 17/11 Q1006

20240329_rjnt_08ja214a

すぐ後ろを千歳便が追いかけてきていました。

20240329_rjnt_09ja214a
20240329_rjnt_10ja214a

ANA1182 RJCC-RJNT JA214A A320-271N

20240329_rjnt_11ja6516

JA6516↓ AS350B3 AKF

20240329_rjnt_12ja214a

最近良く2機並びが見られます。

20240329_rjnt_13ja87an

河は、雪解けのダム放水で、春の海になってます。

20240329_rjnt_14ja87an

ANA316 RJNT-RJTT JA87AN B737-8AL

20240329_rjnt_15ja87an

雪解けが急激に進んでいます。

20240329_rjnt_16ja87an

今は3000ftアバーブでレーダーコンタクト

RJNT 290400Z 28009KT 240V350 9999 FEW020 SCT030 19/10 Q1005

20240329_rjnt_17ja214a
20240329_rjnt_18ja214a
20240329_rjnt_19ja214a

ANA1181 RJNT-RJCC JA214A A320-271N

20240329_rjnt_20ja6516

JA6516↑

20240329_rjnt_21ja139t

JA139T 「つるぎ」さんはエンジンランナップだけ。年度末で静かな1日です。

RJNT 290500Z 27019G31KT 230V300 9999 FEW020 17/11 Q1006

今日は、帰り道で難破船

20240329_yiwase_22dongyu

舳先方が大分軽くなったようで、鞆が少し沈んできました。

20240329_yiwase_23dongyu

DONG YU 今日も地道に作業されています。船の遭難は大変やね。アメリカの橋に衝突したコンテナ船も、撤去が大変なのかな。あんなことが起こるんだね。桑原桑原。

|

« 定点 富山空港他 2024/3/25 tue | トップページ | 定点 富山空港 2024/3/31 sun »

うみ」カテゴリの記事

富山空港」カテゴリの記事

コメント

コメントを書く



(ウェブ上には掲載しません)


コメントは記事投稿者が公開するまで表示されません。



« 定点 富山空港他 2024/3/25 tue | トップページ | 定点 富山空港 2024/3/31 sun »